createdAt,value
2022-08-14T00:02:27.088Z,20.40
2022-08-14T00:04:55.778Z,20.40
2022-08-14T00:07:23.813Z,20.40
2022-08-14T00:09:55.968Z,20.40
2022-08-14T00:12:48.190Z,20.20
2022-08-14T00:15:23.555Z,20.30
2022-08-14T00:17:53.785Z,20.10
2022-08-14T00:20:31.090Z,20.00
2022-08-14T00:23:12.367Z,20.00
2022-08-14T00:25:58.723Z,20.00
2022-08-14T00:28:37.014Z,19.80
2022-08-14T00:31:06.519Z,19.70
2022-08-14T00:33:51.914Z,19.80
2022-08-14T00:36:37.544Z,19.70
2022-08-14T00:39:14.299Z,19.60
2022-08-14T00:41:42.699Z,19.60
2022-08-14T00:44:12.093Z,19.60
2022-08-14T00:46:41.106Z,19.50
2022-08-14T00:49:11.539Z,19.40
2022-08-14T00:51:44.259Z,19.40
2022-08-14T00:54:21.537Z,19.40
2022-08-14T00:56:55.671Z,19.40
2022-08-14T00:59:26.102Z,19.40
2022-08-14T01:01:58.625Z,19.40
2022-08-14T01:04:38.432Z,19.60
2022-08-14T01:07:20.754Z,19.60
2022-08-14T01:09:50.838Z,19.50
2022-08-14T01:12:27.300Z,19.50
2022-08-14T01:15:01.956Z,19.40
2022-08-14T01:17:49.650Z,19.40
2022-08-14T01:20:40.099Z,19.50
2022-08-14T01:23:16.299Z,19.40
2022-08-14T01:25:51.538Z,19.40
2022-08-14T01:28:47.087Z,19.50
2022-08-14T01:31:15.226Z,19.40
2022-08-14T01:35:16.074Z,19.40
2022-08-14T01:36:38.903Z,19.40
2022-08-14T01:39:12.908Z,19.40
2022-08-14T01:41:43.419Z,19.40
2022-08-14T01:44:33.079Z,19.30
2022-08-14T01:47:21.746Z,19.20
2022-08-14T01:49:59.716Z,19.20
2022-08-14T01:52:34.669Z,19.00
2022-08-14T01:55:17.929Z,19.00
2022-08-14T01:58:00.315Z,19.00
2022-08-14T02:00:30.946Z,18.90
2022-08-14T02:03:06.793Z,18.90
2022-08-14T02:05:38.188Z,18.90
2022-08-14T02:08:09.018Z,18.90
2022-08-14T02:10:47.104Z,18.90
2022-08-14T02:13:17.266Z,18.90
2022-08-14T02:15:48.648Z,18.90
2022-08-14T02:18:18.614Z,18.80
2022-08-14T02:20:56.575Z,18.80
2022-08-14T02:23:30.531Z,18.90
2022-08-14T02:26:24.124Z,18.90
2022-08-14T02:28:56.655Z,18.80
2022-08-14T02:31:28.420Z,18.70
2022-08-14T02:34:20.033Z,18.70
2022-08-14T02:37:05.269Z,18.70
2022-08-14T02:39:37.262Z,18.70
2022-08-14T02:42:13.024Z,18.70
2022-08-14T02:44:49.173Z,18.80
2022-08-14T02:47:20.759Z,18.70
2022-08-14T02:49:54.829Z,18.60
2022-08-14T02:52:56.470Z,18.60
2022-08-14T02:55:19.634Z,18.60
2022-08-14T02:58:02.919Z,18.50
2022-08-14T03:00:33.073Z,18.60
2022-08-14T03:03:05.455Z,18.70
2022-08-14T03:05:41.720Z,18.60
2022-08-14T03:14:00.389Z,18.50
2022-08-14T03:16:36.262Z,18.40
2022-08-14T03:19:08.355Z,18.40
2022-08-14T03:21:40.951Z,18.40
2022-08-14T03:24:21.549Z,18.30
2022-08-14T03:26:57.780Z,18.30
2022-08-14T03:29:29.551Z,18.20
2022-08-14T03:32:02.181Z,18.30
2022-08-14T03:34:55.303Z,18.30
2022-08-14T03:37:51.593Z,18.30
2022-08-14T03:40:17.625Z,18.30
2022-08-14T03:42:46.911Z,18.30
2022-08-14T03:45:25.324Z,18.40
2022-08-14T03:48:04.397Z,18.50
2022-08-14T03:50:39.511Z,18.40
2022-08-14T03:53:07.588Z,18.40
2022-08-14T03:55:38.546Z,18.40
2022-08-14T03:58:07.950Z,18.40
2022-08-14T04:00:44.375Z,18.30
2022-08-14T04:03:18.222Z,18.40
2022-08-14T04:05:51.665Z,18.40
2022-08-14T04:08:23.042Z,18.30
2022-08-14T04:10:58.076Z,18.40
2022-08-14T04:13:27.757Z,18.30
2022-08-14T04:16:01.978Z,18.20
2022-08-14T04:18:34.162Z,18.20
2022-08-14T04:21:04.090Z,18.10
2022-08-14T04:23:33.663Z,18.10
2022-08-14T04:26:03.780Z,17.90
2022-08-14T04:29:06.996Z,17.90
2022-08-14T04:31:25.033Z,17.80
2022-08-14T04:34:20.727Z,17.80
2022-08-14T04:37:10.812Z,17.80
2022-08-14T04:39:56.707Z,17.80
2022-08-14T04:42:47.150Z,17.70
2022-08-14T04:45:20.923Z,17.70
2022-08-14T04:48:09.958Z,17.50
2022-08-14T04:50:44.636Z,17.60
2022-08-14T04:53:14.838Z,17.50
2022-08-14T04:55:45.143Z,17.60
2022-08-14T04:58:21.931Z,17.60
2022-08-14T05:01:01.605Z,17.50
2022-08-14T05:03:33.240Z,17.60
2022-08-14T05:06:03.314Z,17.60
2022-08-14T05:08:50.772Z,17.70
2022-08-14T05:11:21.071Z,17.80
2022-08-14T05:16:37.773Z,17.80
2022-08-14T05:19:18.850Z,18.10
2022-08-14T05:22:16.110Z,18.20
2022-08-14T05:24:48.686Z,18.30
2022-08-14T05:27:23.120Z,18.20
2022-08-14T05:29:53.621Z,18.10
2022-08-14T05:32:23.452Z,18.30
2022-08-14T05:34:58.014Z,18.50
2022-08-14T05:37:27.312Z,18.70
2022-08-14T05:39:56.428Z,18.80
2022-08-14T05:42:29.396Z,18.90
2022-08-14T05:45:03.978Z,19.00
2022-08-14T05:47:37.688Z,19.00
2022-08-14T05:50:18.825Z,19.00
2022-08-14T05:52:48.129Z,19.20
2022-08-14T05:55:16.882Z,19.20
2022-08-14T05:57:52.903Z,19.40
2022-08-14T06:00:25.041Z,19.50
2022-08-14T06:02:58.407Z,19.60
2022-08-14T06:05:30.340Z,19.80
2022-08-14T06:07:59.485Z,19.90
2022-08-14T06:10:29.462Z,20.00
2022-08-14T06:12:58.552Z,20.10
2022-08-14T06:15:30.592Z,20.10
2022-08-14T06:18:00.615Z,20.30
2022-08-14T06:20:31.743Z,20.50
2022-08-14T06:23:02.525Z,20.80
2022-08-14T06:25:30.868Z,20.90
2022-08-14T06:28:02.149Z,21.00
2022-08-14T06:30:45.859Z,21.00
2022-08-14T06:33:15.951Z,21.20
2022-08-14T06:35:48.706Z,21.30
2022-08-14T06:38:18.648Z,21.50
2022-08-14T06:40:47.436Z,21.60
2022-08-14T06:43:19.275Z,21.60
2022-08-14T06:45:53.772Z,21.80
2022-08-14T06:48:24.994Z,22.00
2022-08-14T06:50:57.938Z,22.10
2022-08-14T06:53:27.858Z,22.40
2022-08-14T06:55:59.485Z,22.90
2022-08-14T06:58:31.942Z,22.90
2022-08-14T07:01:23.425Z,22.70
2022-08-14T07:04:24.145Z,22.90
2022-08-14T07:06:58.473Z,23.00
2022-08-14T07:09:28.162Z,23.10
2022-08-14T07:12:09.722Z,23.30
2022-08-14T07:15:01.275Z,23.20
2022-08-14T07:17:32.131Z,23.10
2022-08-14T07:20:02.441Z,23.30
2022-08-14T07:22:33.063Z,23.40
2022-08-14T07:25:20.087Z,23.30
2022-08-14T07:27:48.276Z,23.10
2022-08-14T07:30:33.853Z,23.00
2022-08-14T07:33:03.343Z,23.10
2022-08-14T07:35:42.856Z,23.20
2022-08-14T07:38:22.645Z,23.20
2022-08-14T07:40:53.095Z,23.30
2022-08-14T07:43:21.651Z,23.60
2022-08-14T07:45:51.177Z,23.70
2022-08-14T07:48:25.106Z,23.90
2022-08-14T07:51:03.012Z,24.00
2022-08-14T07:53:40.535Z,24.20
2022-08-14T07:56:22.052Z,24.40
2022-08-14T07:58:58.842Z,24.50
2022-08-14T08:01:29.967Z,24.50
2022-08-14T08:04:01.176Z,25.10
2022-08-14T08:06:30.552Z,25.80
2022-08-14T08:09:03.260Z,26.60
2022-08-14T08:11:34.741Z,26.80
2022-08-14T08:14:10.734Z,26.80
2022-08-14T08:16:50.972Z,27.00
2022-08-14T08:19:19.684Z,27.00
2022-08-14T08:21:47.942Z,26.90
2022-08-14T08:24:18.391Z,27.30
2022-08-14T08:26:48.114Z,27.10
2022-08-14T08:29:25.082Z,27.20
2022-08-14T08:32:01.668Z,26.90
2022-08-14T08:34:44.883Z,27.00
2022-08-14T08:37:13.065Z,26.90
2022-08-14T08:40:01.788Z,26.90
2022-08-14T08:42:38.612Z,27.00
2022-08-14T08:45:12.447Z,27.30
2022-08-14T08:47:41.127Z,27.60
2022-08-14T08:50:23.521Z,27.70
2022-08-14T08:53:02.085Z,27.90
2022-08-14T08:55:35.189Z,28.40
2022-08-14T08:58:12.611Z,28.50
2022-08-14T09:00:50.275Z,28.10
2022-08-14T09:03:27.475Z,28.10
2022-08-14T09:05:57.887Z,28.00
2022-08-14T09:08:31.917Z,28.30
2022-08-14T09:11:19.637Z,28.60
2022-08-14T09:13:51.478Z,28.30
2022-08-14T09:16:23.439Z,28.50
2022-08-14T09:18:53.219Z,28.40
2022-08-14T09:21:23.848Z,28.30
2022-08-14T09:24:26.362Z,27.80
2022-08-14T09:26:48.917Z,27.70
2022-08-14T09:29:19.863Z,27.80
2022-08-14T09:31:57.057Z,27.60
2022-08-14T09:34:53.281Z,27.90
2022-08-14T09:37:38.592Z,28.00
2022-08-14T09:40:21.000Z,28.10
2022-08-14T09:42:59.217Z,28.60
2022-08-14T09:45:40.186Z,28.80
2022-08-14T09:48:30.125Z,29.30
2022-08-14T09:54:18.780Z,30.50
2022-08-14T09:56:31.398Z,31.20
2022-08-14T09:59:16.005Z,32.40
2022-08-14T10:01:52.433Z,33.70
2022-08-14T10:04:33.602Z,33.80
2022-08-14T10:07:06.279Z,32.80
2022-08-14T10:10:00.272Z,31.80
2022-08-14T10:12:54.774Z,31.00
2022-08-14T10:15:29.824Z,31.00
2022-08-14T10:18:17.311Z,31.40
2022-08-14T10:20:57.597Z,32.50
2022-08-14T10:23:33.702Z,32.20
2022-08-14T10:26:06.552Z,32.50
2022-08-14T10:29:19.004Z,32.60
2022-08-14T10:31:40.220Z,32.40
2022-08-14T10:34:19.677Z,32.60
2022-08-14T10:36:50.227Z,33.10
2022-08-14T10:39:30.272Z,33.50
2022-08-14T10:42:16.719Z,34.00
2022-08-14T10:44:52.462Z,34.90
2022-08-14T10:47:40.064Z,35.40
2022-08-14T10:50:14.819Z,36.20
2022-08-14T10:52:45.055Z,36.70
2022-08-14T10:55:15.640Z,37.10
2022-08-14T10:57:52.412Z,38.30
2022-08-14T11:00:30.318Z,37.70
2022-08-14T11:03:09.590Z,37.00
2022-08-14T11:05:43.432Z,37.40
2022-08-14T11:08:14.287Z,36.70
2022-08-14T11:10:46.122Z,37.20
2022-08-14T11:13:19.671Z,37.60
2022-08-14T11:15:49.311Z,37.10
2022-08-14T11:18:20.519Z,36.70
2022-08-14T11:21:01.797Z,36.60
2022-08-14T11:23:37.720Z,35.30
2022-08-14T11:26:08.246Z,34.50
2022-08-14T11:28:47.432Z,33.70
2022-08-14T11:31:19.651Z,32.70
2022-08-14T11:33:57.580Z,32.40
2022-08-14T11:36:57.139Z,32.20
2022-08-14T11:39:22.893Z,31.20
2022-08-14T11:42:55.391Z,30.70
2022-08-14T11:44:53.615Z,30.50
2022-08-14T11:47:25.040Z,30.60
2022-08-14T11:49:56.065Z,30.60
2022-08-14T11:52:40.434Z,30.20
2022-08-14T11:55:12.903Z,29.60
2022-08-14T11:57:41.951Z,29.50
2022-08-14T12:00:14.684Z,29.50
2022-08-14T12:03:04.050Z,29.50
2022-08-14T12:05:36.816Z,29.20
2022-08-14T12:08:12.071Z,28.90
2022-08-14T12:10:43.911Z,29.00
2022-08-14T12:13:14.582Z,29.10
2022-08-14T12:15:49.585Z,29.10
2022-08-14T12:18:32.671Z,29.20
2022-08-14T12:21:15.712Z,29.30
2022-08-14T12:23:50.650Z,29.30
2022-08-14T12:26:39.078Z,29.20
2022-08-14T12:29:10.454Z,29.30
2022-08-14T12:31:44.672Z,29.30
2022-08-14T12:34:20.691Z,29.30
2022-08-14T12:37:05.601Z,29.30
2022-08-14T12:39:39.715Z,29.30
2022-08-14T12:42:11.821Z,29.30
2022-08-14T12:45:04.027Z,29.20
2022-08-14T12:47:32.508Z,29.00
2022-08-14T12:50:01.225Z,28.90
2022-08-14T12:52:36.141Z,29.10
2022-08-14T12:55:21.820Z,29.20
2022-08-14T12:57:53.241Z,29.20
2022-08-14T13:00:24.410Z,28.90
2022-08-14T13:02:55.245Z,29.00
2022-08-14T13:05:25.255Z,29.10
2022-08-14T13:07:59.040Z,29.10
2022-08-14T13:10:46.711Z,29.10
2022-08-14T13:13:18.668Z,29.20
2022-08-14T13:15:56.018Z,29.30
2022-08-14T13:18:27.110Z,29.20
2022-08-14T13:20:59.669Z,29.20
2022-08-14T13:23:36.268Z,28.90
2022-08-14T13:26:05.910Z,28.80
2022-08-14T13:29:02.312Z,28.80
2022-08-14T13:31:32.321Z,28.90
2022-08-14T13:34:03.392Z,28.90
2022-08-14T13:36:51.425Z,28.90
2022-08-14T13:39:24.385Z,28.90
2022-08-14T13:41:55.430Z,28.90
2022-08-14T13:44:28.767Z,28.90
2022-08-14T13:46:58.360Z,28.90
2022-08-14T13:49:28.985Z,28.90
2022-08-14T13:52:00.123Z,28.90
2022-08-14T13:54:32.728Z,28.90
2022-08-14T13:57:03.704Z,29.00
2022-08-14T13:59:37.415Z,29.00
2022-08-14T14:02:09.269Z,28.70
2022-08-14T14:04:41.182Z,28.80
2022-08-14T14:07:13.096Z,28.90
2022-08-14T14:09:52.459Z,29.00
2022-08-14T14:12:36.481Z,29.10
2022-08-14T14:15:12.273Z,29.00
2022-08-14T14:17:43.953Z,28.90
2022-08-14T14:20:35.628Z,28.90
2022-08-14T14:23:11.567Z,28.90
2022-08-14T14:25:49.365Z,29.00
2022-08-14T14:28:31.151Z,29.00
2022-08-14T14:31:06.746Z,28.90
2022-08-14T14:33:52.173Z,28.90
2022-08-14T14:36:27.894Z,28.80
2022-08-14T14:38:57.597Z,28.90
2022-08-14T14:41:37.881Z,28.80
2022-08-14T14:44:09.210Z,28.90
2022-08-14T14:46:42.022Z,28.90
2022-08-14T14:49:14.990Z,28.90
2022-08-14T14:51:46.784Z,28.90
2022-08-14T14:54:31.065Z,28.90
2022-08-14T14:57:02.292Z,29.00
2022-08-14T14:59:33.383Z,28.90
2022-08-14T15:02:07.758Z,28.80
2022-08-14T15:04:37.910Z,28.90
2022-08-14T15:07:07.581Z,28.80
2022-08-14T15:09:35.726Z,28.90
2022-08-14T15:12:34.813Z,28.90
2022-08-14T15:14:58.103Z,29.00
2022-08-14T15:17:41.592Z,28.90
2022-08-14T15:20:17.364Z,28.90
2022-08-14T15:23:00.710Z,29.10
2022-08-14T15:25:30.054Z,28.90
2022-08-14T15:28:00.830Z,28.80
2022-08-14T15:30:32.582Z,28.80
2022-08-14T15:33:01.090Z,28.90
2022-08-14T15:35:34.001Z,29.00
2022-08-14T15:38:08.025Z,29.00
2022-08-14T15:40:37.584Z,28.70
2022-08-14T15:43:12.916Z,28.80
2022-08-14T15:45:42.059Z,28.60
2022-08-14T15:48:15.770Z,28.60
2022-08-14T15:50:50.851Z,28.70
2022-08-14T15:53:22.577Z,28.70
2022-08-14T15:55:52.962Z,28.80
2022-08-14T15:58:22.794Z,28.80
2022-08-14T16:01:09.840Z,28.80
2022-08-14T16:03:40.908Z,28.80
2022-08-14T16:06:15.726Z,28.80
2022-08-14T16:08:50.401Z,28.80
2022-08-14T16:11:28.793Z,28.80
2022-08-14T16:14:03.036Z,28.70
2022-08-14T16:16:50.220Z,28.70
2022-08-14T16:19:24.576Z,28.70
2022-08-14T16:22:02.098Z,28.70
2022-08-14T16:25:00.027Z,28.70
2022-08-14T16:27:33.592Z,28.70
2022-08-14T16:30:04.749Z,28.60
2022-08-14T16:32:35.890Z,28.70
2022-08-14T16:35:04.894Z,28.70
2022-08-14T16:37:35.319Z,28.60
2022-08-14T16:40:04.708Z,28.70
2022-08-14T16:43:03.460Z,28.60
2022-08-14T16:45:26.292Z,28.60
2022-08-14T16:47:55.763Z,28.60
2022-08-14T16:50:42.982Z,28.50
2022-08-14T16:53:12.806Z,28.40
2022-08-14T16:55:53.399Z,28.50
2022-08-14T16:58:29.587Z,28.40
2022-08-14T17:01:24.902Z,28.30
2022-08-14T17:03:58.502Z,28.20
2022-08-14T17:06:46.127Z,28.30
2022-08-14T17:09:36.951Z,28.30
2022-08-14T17:12:31.452Z,28.30
2022-08-14T17:15:10.813Z,28.20
2022-08-14T17:17:59.719Z,28.30
2022-08-14T17:20:39.744Z,28.30
2022-08-14T17:23:16.352Z,28.20
2022-08-14T17:25:51.015Z,28.20
2022-08-14T17:28:49.837Z,28.20
2022-08-14T17:31:09.952Z,28.20
2022-08-14T17:33:51.817Z,28.10
2022-08-14T17:36:22.950Z,28.20
2022-08-14T17:39:02.780Z,28.10
2022-08-14T17:42:03.294Z,28.00
2022-08-14T17:44:44.860Z,28.00
2022-08-14T17:47:18.262Z,27.90
2022-08-14T17:49:52.716Z,27.90
2022-08-14T17:52:36.522Z,27.90
2022-08-14T17:55:12.463Z,27.90
2022-08-14T17:58:00.593Z,27.80
2022-08-14T18:00:30.607Z,27.70
2022-08-14T18:03:00.184Z,27.70
2022-08-14T18:06:07.091Z,27.60
2022-08-14T18:08:32.038Z,27.50
2022-08-14T18:11:03.243Z,27.50
2022-08-14T18:13:51.920Z,27.40
2022-08-14T18:16:22.694Z,27.40
2022-08-14T18:18:51.810Z,27.30
2022-08-14T18:21:23.553Z,27.20
2022-08-14T18:24:28.653Z,27.20
2022-08-14T18:27:08.983Z,27.20
2022-08-14T18:29:44.733Z,27.00
2022-08-14T18:32:47.112Z,27.10
2022-08-14T18:35:17.667Z,27.00
2022-08-14T18:37:56.046Z,27.00
2022-08-14T18:40:34.446Z,26.90
2022-08-14T18:43:03.977Z,26.90
2022-08-14T18:45:33.909Z,26.90
2022-08-14T18:48:50.647Z,26.80
2022-08-14T18:51:45.868Z,26.80
2022-08-14T18:54:33.176Z,26.80
2022-08-14T18:57:03.582Z,26.70
2022-08-14T18:59:40.310Z,26.70
2022-08-14T19:02:45.866Z,26.60
2022-08-14T19:05:14.484Z,26.60
2022-08-14T19:07:43.589Z,26.50
2022-08-14T19:10:37.551Z,26.50
2022-08-14T19:13:12.154Z,26.40
2022-08-14T19:15:42.743Z,26.30
2022-08-14T19:18:26.637Z,26.20
2022-08-14T19:20:58.576Z,26.10
2022-08-14T19:23:43.036Z,26.10
2022-08-14T19:26:35.579Z,26.10
2022-08-14T19:29:36.203Z,26.00
2022-08-14T19:32:39.626Z,25.90
2022-08-14T19:35:54.964Z,25.90
2022-08-14T19:38:54.436Z,25.90
2022-08-14T19:41:33.844Z,25.90
2022-08-14T19:44:14.137Z,25.80
2022-08-14T19:47:01.424Z,25.80
2022-08-14T19:50:24.808Z,25.80
2022-08-14T19:52:26.334Z,25.70
2022-08-14T19:54:57.979Z,25.70
2022-08-14T19:57:28.948Z,25.80
2022-08-14T20:00:04.728Z,25.70
2022-08-14T20:02:37.597Z,25.50
2022-08-14T20:05:12.248Z,25.40
2022-08-14T20:07:59.386Z,25.40
2022-08-14T20:11:07.737Z,25.30
2022-08-14T20:13:32.264Z,25.40
2022-08-14T20:16:12.223Z,25.30
2022-08-14T20:18:51.598Z,25.30
2022-08-14T20:21:34.341Z,25.30
2022-08-14T20:24:30.291Z,25.30
2022-08-14T20:27:40.013Z,25.30
2022-08-14T20:30:34.671Z,25.30
2022-08-14T20:33:07.960Z,25.20
2022-08-14T20:35:43.590Z,25.10
2022-08-14T20:38:31.233Z,25.00
2022-08-14T20:41:02.020Z,25.00
2022-08-14T20:43:55.727Z,25.00
2022-08-14T20:46:29.370Z,24.90
2022-08-14T20:49:00.151Z,24.90
2022-08-14T20:51:36.441Z,24.90
2022-08-14T20:54:09.149Z,24.70
2022-08-14T20:56:40.560Z,24.80
2022-08-14T20:59:17.552Z,24.70
2022-08-14T21:01:47.843Z,24.70
2022-08-14T21:04:26.594Z,24.60
2022-08-14T21:07:25.423Z,24.50
2022-08-14T21:10:05.735Z,24.50
2022-08-14T21:12:36.150Z,24.40
2022-08-14T21:15:11.060Z,24.30
2022-08-14T21:17:43.369Z,24.20
2022-08-14T21:20:25.526Z,24.30
2022-08-14T21:22:56.633Z,24.20
2022-08-14T21:25:31.540Z,24.30
2022-08-14T21:28:04.061Z,24.30
2022-08-14T21:30:51.136Z,24.20
2022-08-14T21:33:22.801Z,24.30
2022-08-14T21:35:55.459Z,24.30
2022-08-14T21:38:31.312Z,24.20
2022-08-14T21:41:42.371Z,24.20
2022-08-14T21:44:17.618Z,24.20
2022-08-14T21:46:50.481Z,24.20
2022-08-14T21:49:22.539Z,24.20
2022-08-14T21:51:59.953Z,24.20
2022-08-14T21:54:49.464Z,24.10
2022-08-14T21:57:55.774Z,24.10
2022-08-14T22:00:30.330Z,24.20
2022-08-14T22:03:02.110Z,24.20
2022-08-14T22:05:32.387Z,24.20
2022-08-14T22:08:02.436Z,24.20
2022-08-14T22:10:32.597Z,24.20
2022-08-14T22:13:01.916Z,24.10
2022-08-14T22:15:31.204Z,24.00
2022-08-14T22:17:59.450Z,24.00
2022-08-14T22:20:29.184Z,24.00
2022-08-14T22:23:03.016Z,23.90
2022-08-14T22:25:34.005Z,23.90
2022-08-14T22:28:03.377Z,23.90
2022-08-14T22:30:31.416Z,23.90
2022-08-14T22:33:00.161Z,23.90
2022-08-14T22:35:29.470Z,23.90
2022-08-14T22:38:36.505Z,23.90
2022-08-14T22:41:08.329Z,23.90
2022-08-14T22:43:38.853Z,23.80
2022-08-14T22:46:14.903Z,23.80
2022-08-14T22:48:51.158Z,23.80
2022-08-14T22:51:22.178Z,23.70
2022-08-14T22:53:54.613Z,23.70
2022-08-14T22:56:30.200Z,23.70
2022-08-14T22:59:00.424Z,23.70
2022-08-14T23:01:56.515Z,23.60
2022-08-14T23:04:35.711Z,23.60
2022-08-14T23:07:14.384Z,23.70
2022-08-14T23:09:55.886Z,23.80
2022-08-14T23:12:28.717Z,23.80
2022-08-14T23:14:58.243Z,23.80
2022-08-14T23:17:27.552Z,23.80
2022-08-14T23:20:19.231Z,23.80
2022-08-14T23:22:51.135Z,23.70
2022-08-14T23:25:56.974Z,23.70
2022-08-14T23:28:33.720Z,23.70
2022-08-14T23:31:05.698Z,23.80
2022-08-14T23:33:35.461Z,23.80
2022-08-14T23:36:04.635Z,23.70
2022-08-14T23:38:52.815Z,23.70
2022-08-14T23:41:23.224Z,23.60
2022-08-14T23:43:54.541Z,23.70
2022-08-14T23:46:34.514Z,23.80
2022-08-14T23:49:02.801Z,23.80
2022-08-14T23:51:36.517Z,23.70
2022-08-14T23:54:49.055Z,23.60
2022-08-14T23:57:02.719Z,23.60
2022-08-14T23:59:31.682Z,23.60
